Time;durP1;ratioP1;P1;durP2;ratioP2;P2;SDS_P1;SDS_P2;PMS_P1;PMS_P2;Temp;Humidity;BMP_temperature;BMP_pressure;BME280_temperature;BME280_humidity;BME280_pressure;Samples;Min_cycle;Max_cycle;Signal;HPM_P1;HPM_P2
2023/08/06 00:02:07;;;;;;;14.20;7.90;;;;;;;29.75;46.70;99616.27;108475;1277;22446;-62
2023/08/06 00:04:33;;;;;;;11.10;8.10;;;;;;;29.74;46.61;99614.52;108408;1272;21987;-68
2023/08/06 00:06:58;;;;;;;10.60;7.60;;;;;;;29.71;46.70;99610.42;108455;1279;21989;-59
2023/08/06 00:09:24;;;;;;;9.80;7.60;;;;;;;29.69;46.67;99608.86;108444;1280;21991;-59
2023/08/06 00:11:49;;;;;;;14.00;9.10;;;;;;;29.67;46.56;99605.94;108455;1282;21981;-59
2023/08/06 00:14:17;;;;;;;11.60;8.80;;;;;;;29.75;46.49;99602.27;108431;1282;21992;-59
2023/08/06 00:16:44;;;;;;;13.10;9.20;;;;;;;29.73;46.39;99600.40;108429;1281;21993;-68
2023/08/06 00:19:09;;;;;;;15.80;10.40;;;;;;;29.82;46.18;99596.79;108512;1281;21988;-59
2023/08/06 00:21:35;;;;;;;18.30;10.50;;;;;;;29.75;46.30;99595.02;108476;1280;23213;-59
2023/08/06 00:24:00;;;;;;;19.60;10.60;;;;;;;29.71;46.12;99591.79;108422;1276;21986;-59
2023/08/06 00:26:26;;;;;;;16.90;10.40;;;;;;;29.71;46.24;99587.52;108479;1282;21998;-67
2023/08/06 00:28:51;;;;;;;13.30;10.10;;;;;;;29.69;46.10;99584.94;108445;1280;21996;-58
2023/08/06 00:31:17;;;;;;;14.70;10.50;;;;;;;29.69;46.22;99581.54;108398;1276;21978;-68
2023/08/06 00:33:42;;;;;;;12.40;9.70;;;;;;;29.66;46.24;99577.42;108447;1281;21984;-59
2023/08/06 00:36:08;;;;;;;15.20;10.10;;;;;;;29.64;46.09;99575.41;108424;1281;21979;-68
2023/08/06 00:38:33;;;;;;;14.30;9.30;;;;;;;29.59;46.16;99566.66;108444;1270;21988;-59
2023/08/06 00:40:59;;;;;;;15.60;9.20;;;;;;;29.56;46.06;99561.44;108466;1281;21975;-68
2023/08/06 00:43:25;;;;;;;11.30;8.60;;;;;;;29.53;46.00;99560.41;108298;1282;22004;-68
2023/08/06 00:45:50;;;;;;;11.30;8.60;;;;;;;29.53;45.81;99564.25;108404;1277;21983;-68
2023/08/06 00:48:16;;;;;;;13.90;8.90;;;;;;;29.52;45.68;99564.50;108410;1280;24825;-58
2023/08/06 00:50:41;;;;;;;14.80;8.80;;;;;;;29.52;45.68;99567.94;108448;1281;21980;-58
2023/08/06 00:53:07;;;;;;;14.20;8.60;;;;;;;29.50;45.59;99571.40;108071;1279;22154;-67
2023/08/06 00:55:32;;;;;;;14.00;9.10;;;;;;;29.46;45.55;99572.16;108427;1271;21983;-67
2023/08/06 00:57:58;;;;;;;14.00;8.70;;;;;;;29.42;45.81;99570.26;108191;1281;21985;-67
2023/08/06 01:00:24;;;;;;;11.60;8.00;;;;;;;29.37;45.67;99571.34;108359;1277;22026;-59
2023/08/06 01:02:50;;;;;;;15.10;8.10;;;;;;;29.32;45.81;99570.15;108329;1282;22016;-68
2023/08/06 01:05:15;;;;;;;20.60;11.60;;;;;;;29.29;45.74;99566.74;108340;1277;21982;-59
2023/08/06 01:07:51;;;;;;;24.80;11.40;;;;;;;29.26;45.93;99563.77;108406;1277;21983;-67
2023/08/06 01:10:23;;;;;;;22.60;13.30;;;;;;;29.24;46.08;99560.71;108354;1282;21981;-68
2023/08/06 01:13:21;;;;;;;28.10;15.50;;;;;;;29.19;46.12;99553.73;108363;1276;21994;-59
2023/08/06 01:15:49;;;;;;;23.70;14.80;;;;;;;29.16;46.28;99548.52;108456;1281;24034;-69
2023/08/06 01:18:15;;;;;;;27.40;15.70;;;;;;;29.14;46.06;99544.55;108513;1273;21983;-59
2023/08/06 01:20:41;;;;;;;27.10;16.80;;;;;;;29.14;45.94;99540.11;108309;1277;22153;-59
2023/08/06 01:23:06;;;;;;;37.20;22.60;;;;;;;29.14;45.90;99533.27;108427;1282;21983;-68
2023/08/06 01:26:03;;;;;;;41.40;25.90;;;;;;;29.12;46.05;99532.48;108301;1276;21980;-59
2023/08/06 01:28:53;;;;;;;30.80;19.80;;;;;;;29.08;46.14;99529.06;110446;1281;21955;-59
2023/08/06 01:31:24;;;;;;;28.00;17.90;;;;;;;29.06;46.26;99526.98;110198;1281;21905;-67
2023/08/06 01:33:49;;;;;;;25.60;16.00;;;;;;;29.04;46.30;99526.27;108758;1281;21979;-69
2023/08/06 01:36:18;;;;;;;21.40;14.90;;;;;;;29.03;46.19;99524.56;108152;1282;21970;-59
2023/08/06 01:38:44;;;;;;;25.80;14.70;;;;;;;29.04;46.12;99521.44;108509;1282;22166;-69
2023/08/06 01:41:10;;;;;;;23.80;14.00;;;;;;;29.06;46.17;99520.12;108415;1274;21995;-59
2023/08/06 01:43:35;;;;;;;25.40;16.60;;;;;;;29.07;46.13;99518.53;108334;1281;21981;-59
2023/08/06 01:46:01;;;;;;;37.70;22.30;;;;;;;29.08;45.83;99517.73;108452;1277;21990;-59
2023/08/06 01:48:26;;;;;;;38.80;23.30;;;;;;;29.08;46.11;99513.93;108443;1280;22015;-68
2023/08/06 01:50:52;;;;;;;36.60;23.70;;;;;;;29.07;45.93;99509.19;108415;1281;21990;-59
2023/08/06 01:53:17;;;;;;;34.30;21.60;;;;;;;29.06;45.89;99505.29;108433;1276;22018;-58
2023/08/06 01:55:48;;;;;;;26.40;17.70;;;;;;;29.05;46.10;99503.63;108427;1280;21976;-67
2023/08/06 01:58:13;;;;;;;31.10;17.20;;;;;;;29.03;46.05;99501.78;108441;1281;21980;-59
2023/08/06 02:00:40;;;;;;;29.40;17.70;;;;;;;29.00;46.14;99503.08;108440;1277;21988;-59
2023/08/06 02:03:06;;;;;;;26.60;18.70;;;;;;;28.94;46.04;99505.27;108426;1277;21990;-59
2023/08/06 02:05:31;;;;;;;28.60;18.70;;;;;;;28.88;46.26;99501.36;108441;1280;23046;-60
2023/08/06 02:07:57;;;;;;;27.40;20.20;;;;;;;28.83;46.29;99499.73;108483;1276;22022;-67
2023/08/06 02:10:22;;;;;;;35.00;22.00;;;;;;;28.80;46.18;99501.33;108415;1279;21989;-60
2023/08/06 02:12:48;;;;;;;37.00;23.90;;;;;;;28.75;46.29;99506.08;108416;1276;21989;-69
2023/08/06 02:15:13;;;;;;;35.50;24.10;;;;;;;28.70;46.51;99502.63;108431;1276;21980;-69
2023/08/06 02:17:39;;;;;;;44.90;27.50;;;;;;;28.67;46.65;99500.30;108391;1282;21985;-70
2023/08/06 02:20:05;;;;;;;46.70;30.30;;;;;;;28.66;46.60;99501.30;108440;1277;21991;-67
2023/08/06 02:22:31;;;;;;;49.50;31.70;;;;;;;28.66;46.81;99497.02;108489;1269;23748;-68
2023/08/06 02:24:56;;;;;;;51.70;32.90;;;;;;;28.66;46.71;99496.80;108502;1278;21981;-59
2023/08/06 02:27:22;;;;;;;42.70;31.60;;;;;;;28.65;46.66;99501.95;108337;1277;21984;-59
2023/08/06 02:29:47;;;;;;;45.20;30.70;;;;;;;28.61;46.79;99498.52;108391;1273;21983;-69
2023/08/06 02:32:13;;;;;;;43.00;28.80;;;;;;;28.56;46.70;99505.21;108373;1282;21986;-59
2023/08/06 02:34:39;;;;;;;40.20;28.50;;;;;;;28.48;46.94;99509.45;108462;1280;21989;-68
2023/08/06 02:37:04;;;;;;;40.20;28.50;;;;;;;28.40;47.15;99510.75;108441;1281;22097;-59
2023/08/06 02:39:30;;;;;;;49.40;31.60;;;;;;;28.36;47.33;99508.61;108452;1281;21988;-59
2023/08/06 02:41:55;;;;;;;46.00;29.40;;;;;;;28.32;47.45;99507.73;108449;1274;22180;-60
2023/08/06 02:44:21;;;;;;;42.50;28.10;;;;;;;28.26;47.64;99506.25;108504;1281;21992;-69
2023/08/06 02:46:47;;;;;;;51.10;30.30;;;;;;;28.19;47.71;99505.45;108442;1281;21986;-59
2023/08/06 02:49:12;;;;;;;56.40;30.40;;;;;;;28.11;47.81;99505.98;108432;1270;22167;-69
2023/08/06 02:51:38;;;;;;;46.40;28.50;;;;;;;28.05;48.11;99510.38;108396;1276;21991;-58
2023/08/06 02:54:03;;;;;;;42.40;27.60;;;;;;;28.01;48.30;99512.21;108401;1277;21991;-60
2023/08/06 02:56:29;;;;;;;42.40;24.60;;;;;;;28.01;48.51;99513.36;108395;1281;21993;-69
2023/08/06 02:58:55;;;;;;;32.90;22.60;;;;;;;28.02;48.87;99514.14;108367;1277;21989;-59
2023/08/06 03:01:20;;;;;;;35.40;24.70;;;;;;;28.04;48.85;99516.05;108313;1276;21996;-69
2023/08/06 03:03:46;;;;;;;39.60;26.80;;;;;;;28.07;49.10;99514.52;108320;1281;21983;-70
2023/08/06 03:06:12;;;;;;;33.70;26.30;;;;;;;28.09;49.27;99510.36;108414;1277;21980;-70
2023/08/06 03:08:37;;;;;;;42.20;27.00;;;;;;;28.11;49.31;99512.38;108482;1280;22001;-70
2023/08/06 03:11:03;;;;;;;36.40;25.00;;;;;;;28.13;49.47;99511.27;108396;1281;21999;-69
2023/08/06 03:13:29;;;;;;;36.70;22.70;;;;;;;28.15;49.66;99511.80;108430;1280;21995;-71
2023/08/06 03:15:58;;;;;;;34.80;23.20;;;;;;;28.17;49.93;99510.90;108437;1277;21987;-59
2023/08/06 03:18:25;;;;;;;33.20;23.00;;;;;;;28.18;50.31;99508.75;108467;1280;22037;-60
2023/08/06 03:20:51;;;;;;;39.80;22.70;;;;;;;28.20;50.42;99504.95;108597;1276;22436;-69
2023/08/06 03:23:18;;;;;;;38.30;26.20;;;;;;;28.26;50.61;99503.48;108306;1283;23850;-59
2023/08/06 03:25:43;;;;;;;45.30;27.20;;;;;;;28.34;50.85;99506.11;108470;1281;21978;-70
2023/08/06 03:28:09;;;;;;;35.30;22.90;;;;;;;28.41;50.92;99500.34;108527;1277;21989;-69
2023/08/06 03:30:35;;;;;;;33.70;22.50;;;;;;;28.49;51.23;99495.52;108523;1282;22163;-70
2023/08/06 03:33:00;;;;;;;38.20;23.60;;;;;;;28.58;51.20;99493.25;108480;1277;21993;-70
2023/08/06 03:35:26;;;;;;;43.40;24.50;;;;;;;28.67;51.55;99490.92;108427;1277;21992;-69
2023/08/06 03:37:51;;;;;;;34.60;20.80;;;;;;;28.75;51.18;99488.95;108513;1277;21974;-59
2023/08/06 03:40:17;;;;;;;31.60;19.20;;;;;;;28.85;51.51;99486.02;108438;1276;24050;-59
2023/08/06 03:42:43;;;;;;;28.00;16.70;;;;;;;28.96;51.72;99481.63;108352;1277;22450;-60
2023/08/06 03:45:08;;;;;;;22.40;16.10;;;;;;;29.07;52.02;99482.34;108366;1281;21992;-59
2023/08/06 03:47:34;;;;;;;20.40;14.20;;;;;;;29.17;52.16;99487.94;108282;1277;22003;-59
2023/08/06 03:50:00;;;;;;;24.10;13.60;;;;;;;29.26;52.39;99489.36;108438;1275;23052;-71
2023/08/06 03:52:25;;;;;;;21.70;14.00;;;;;;;29.35;52.43;99496.16;108508;1281;21986;-69
2023/08/06 03:54:51;;;;;;;23.60;13.20;;;;;;;29.44;52.52;99491.23;108507;1280;21985;-70
2023/08/06 03:57:17;;;;;;;17.30;12.20;;;;;;;29.54;52.51;99495.61;108412;1276;22156;-59
2023/08/06 03:59:42;;;;;;;19.20;12.30;;;;;;;29.64;52.76;99493.67;108420;1281;22060;-70
2023/08/06 04:02:08;;;;;;;16.20;11.60;;;;;;;29.73;52.98;99489.77;108430;1273;21979;-59
2023/08/06 04:04:34;;;;;;;16.30;11.30;;;;;;;29.82;53.16;99490.30;108408;1276;21978;-71
2023/08/06 04:06:59;;;;;;;15.80;10.10;;;;;;;29.91;53.47;99484.70;108459;1273;21993;-69
2023/08/06 04:09:25;;;;;;;13.20;9.90;;;;;;;30.00;54.34;99486.23;108505;1275;21988;-70
2023/08/06 04:11:50;;;;;;;16.00;9.60;;;;;;;30.08;54.64;99488.20;108290;1273;21998;-70
2023/08/06 04:14:16;;;;;;;18.70;9.80;;;;;;;30.18;54.50;99488.27;108491;1277;21975;-70
2023/08/06 04:16:41;;;;;;;12.00;8.50;;;;;;;30.30;54.55;99484.10;108401;1282;23767;-71
2023/08/06 04:19:07;;;;;;;15.40;8.80;;;;;;;30.41;54.85;99479.27;108548;1280;22108;-59
2023/08/06 04:21:32;;;;;;;12.80;8.90;;;;;;;30.53;55.76;99476.83;108499;1280;21983;-59
2023/08/06 04:23:59;;;;;;;11.30;8.30;;;;;;;30.65;56.37;99475.51;108439;1270;21951;-60
2023/08/06 04:26:25;;;;;;;16.10;7.80;;;;;;;30.78;56.30;99473.25;108472;1276;22028;-59
2023/08/06 04:28:50;;;;;;;12.90;7.80;;;;;;;30.91;56.42;99468.91;108445;1281;22163;-59
2023/08/06 04:31:16;;;;;;;12.60;8.30;;;;;;;31.05;57.26;99466.23;108503;1281;21985;-59
2023/08/06 04:33:42;;;;;;;10.40;7.50;;;;;;;31.19;57.76;99465.77;108277;1282;22100;-69
2023/08/06 04:36:08;;;;;;;9.80;7.40;;;;;;;31.34;57.63;99467.73;108435;1281;23616;-70
2023/08/06 04:38:33;;;;;;;13.60;7.50;;;;;;;31.47;57.63;99465.24;108486;1277;21981;-71
2023/08/06 04:40:59;;;;;;;11.00;7.80;;;;;;;31.61;57.57;99460.38;108385;1281;21980;-60
2023/08/06 04:43:25;;;;;;;12.60;7.40;;;;;;;31.77;57.87;99451.95;108415;1281;21983;-61
2023/08/06 04:45:51;;;;;;;13.90;7.60;;;;;;;31.92;58.23;99451.75;108390;1276;21990;-60
2023/08/06 04:48:17;;;;;;;12.60;7.20;;;;;;;32.09;58.32;99451.62;108513;1278;22450;-60
2023/08/06 04:50:47;;;;;;;9.60;7.00;;;;;;;32.23;59.19;99450.52;108497;1280;21990;-71
2023/08/06 04:53:12;;;;;;;13.60;7.70;;;;;;;32.38;58.79;99446.92;108523;1278;22091;-71
2023/08/06 04:55:38;;;;;;;11.50;7.30;;;;;;;32.53;58.77;99443.71;108539;1276;21983;-73
2023/08/06 04:58:04;;;;;;;11.80;6.90;;;;;;;32.69;58.40;99442.03;108303;1281;23596;-72
2023/08/06 05:00:29;;;;;;;11.30;7.00;;;;;;;32.84;58.39;99439.27;108481;1277;21980;-60
2023/08/06 05:02:55;;;;;;;12.80;6.90;;;;;;;33.00;58.50;99436.98;108522;1280;21984;-60
2023/08/06 05:05:21;;;;;;;10.30;6.60;;;;;;;33.16;58.26;99436.98;108563;1280;21983;-67
2023/08/06 05:07:48;;;;;;;11.40;7.10;;;;;;;33.32;58.23;99436.89;108451;1281;21987;-60
2023/08/06 05:10:14;;;;;;;9.40;7.40;;;;;;;33.47;58.30;99435.87;108442;1276;21985;-74
2023/08/06 05:12:39;;;;;;;11.40;7.60;;;;;;;33.60;57.70;99435.06;108448;1281;22439;-61
2023/08/06 05:15:05;;;;;;;11.80;6.80;;;;;;;33.74;57.66;99438.65;108437;1276;21979;-71
2023/08/06 05:17:31;;;;;;;9.70;6.50;;;;;;;33.87;57.40;99431.27;108335;1282;21987;-60
2023/08/06 05:19:57;;;;;;;8.70;6.70;;;;;;;33.99;57.79;99431.00;108442;1276;21983;-74
2023/08/06 05:22:22;;;;;;;9.90;6.80;;;;;;;34.10;56.92;99420.92;108430;1280;21997;-60
2023/08/06 05:24:48;;;;;;;10.10;7.60;;;;;;;34.21;56.83;99419.77;108447;1276;22006;-60
2023/08/06 05:27:13;;;;;;;9.60;7.20;;;;;;;34.37;56.65;99419.45;108471;1270;21949;-73
2023/08/06 05:29:39;;;;;;;10.40;7.30;;;;;;;34.54;56.33;99421.08;108429;1281;21988;-61
2023/08/06 05:32:05;;;;;;;9.60;7.20;;;;;;;34.73;56.08;99424.88;108458;1281;22071;-72
2023/08/06 05:34:30;;;;;;;8.80;6.90;;;;;;;34.92;55.29;99422.18;108481;1280;21983;-61
2023/08/06 05:36:56;;;;;;;8.50;6.10;;;;;;;35.07;54.96;99418.42;108447;1270;21983;-60
2023/08/06 05:39:21;;;;;;;11.70;6.60;;;;;;;35.18;54.55;99417.98;108510;1281;21992;-61
2023/08/06 05:41:47;;;;;;;13.30;6.60;;;;;;;35.28;54.11;99420.52;108483;1281;22017;-61
2023/08/06 05:44:13;;;;;;;7.40;6.00;;;;;;;35.39;53.72;99421.95;108668;1281;21993;-73
2023/08/06 05:46:38;;;;;;;14.10;6.80;;;;;;;35.53;53.64;99417.55;108506;1280;21971;-59
2023/08/06 05:49:04;;;;;;;10.50;6.60;;;;;;;35.70;53.12;99417.48;108460;1273;22153;-61
2023/08/06 05:51:30;;;;;;;10.40;6.30;;;;;;;35.85;52.59;99413.80;108508;1281;21986;-59
2023/08/06 05:53:56;;;;;;;9.40;7.10;;;;;;;35.91;52.08;99409.93;108430;1276;21983;-77
2023/08/06 05:56:21;;;;;;;8.50;6.90;;;;;;;35.99;51.77;99409.08;108439;1276;21980;-60
2023/08/06 05:58:47;;;;;;;13.20;6.70;;;;;;;36.01;51.31;99407.91;108472;1273;21962;-59
2023/08/06 06:01:13;;;;;;;11.80;6.80;;;;;;;36.08;51.49;99405.72;108489;1277;21982;-59
2023/08/06 06:03:38;;;;;;;9.40;6.20;;;;;;;36.24;51.66;99404.88;108437;1275;21972;-61
2023/08/06 06:06:04;;;;;;;8.90;6.40;;;;;;;36.39;51.09;99406.52;108430;1271;21980;-60
2023/08/06 06:08:30;;;;;;;7.50;6.30;;;;;;;36.53;50.82;99403.73;108435;1273;21954;-59
2023/08/06 06:10:55;;;;;;;7.10;6.00;;;;;;;36.66;49.81;99403.00;108400;1282;21975;-73
2023/08/06 06:13:21;;;;;;;9.00;6.80;;;;;;;36.75;49.48;99396.91;108311;1281;23691;-60
2023/08/06 06:15:47;;;;;;;12.10;7.40;;;;;;;36.87;49.55;99397.38;108394;1281;22031;-74
2023/08/06 06:18:13;;;;;;;8.60;6.40;;;;;;;37.06;49.64;99399.48;108492;1280;21980;-59
2023/08/06 06:20:39;;;;;;;8.00;5.40;;;;;;;37.41;49.71;99399.17;108463;1270;21986;-59
2023/08/06 06:23:04;;;;;;;14.00;6.70;;;;;;;37.87;49.31;99393.67;108432;1282;21999;-69
2023/08/06 06:25:30;;;;;;;12.50;5.70;;;;;;;38.30;48.70;99388.73;108430;1269;21993;-69
2023/08/06 06:27:55;;;;;;;6.80;5.40;;;;;;;38.67;48.07;99381.77;108407;1280;22031;-59
2023/08/06 06:30:21;;;;;;;14.30;6.20;;;;;;;38.88;45.56;99379.70;108457;1282;22021;-69
2023/08/06 06:32:47;;;;;;;9.10;5.40;;;;;;;38.81;44.60;99382.10;108479;1276;22451;-70
2023/08/06 06:35:13;;;;;;;9.30;5.30;;;;;;;38.93;45.60;99380.41;108463;1281;22166;-70
2023/08/06 06:37:38;;;;;;;8.40;5.10;;;;;;;39.09;44.85;99374.33;108462;1281;21980;-59
2023/08/06 06:40:05;;;;;;;8.60;5.20;;;;;;;39.17;43.09;99370.55;108271;1279;21982;-72
2023/08/06 06:42:30;;;;;;;8.60;5.20;;;;;;;39.23;43.10;99367.55;108535;1281;22059;-59
2023/08/06 06:44:56;;;;;;;8.60;5.10;;;;;;;39.38;43.93;99365.09;108495;1274;21983;-70
2023/08/06 06:47:22;;;;;;;10.00;5.20;;;;;;;39.66;43.60;99358.12;108456;1282;21980;-76
2023/08/06 06:49:47;;;;;;;7.20;5.50;;;;;;;39.98;42.10;99355.00;108491;1276;23712;-73
2023/08/06 06:52:14;;;;;;;7.70;5.10;;;;;;;40.00;42.17;99354.02;108307;1277;23722;-59
2023/08/06 06:54:39;;;;;;;9.70;5.10;;;;;;;40.09;41.15;99354.29;108415;1281;21999;-74
2023/08/06 06:57:06;;;;;;;8.00;5.20;;;;;;;40.19;41.10;99349.45;108574;1278;21991;-74
2023/08/06 06:59:31;;;;;;;7.30;4.80;;;;;;;40.25;40.83;99348.95;108401;1281;23644;-60
2023/08/06 07:01:57;;;;;;;6.30;4.40;;;;;;;40.29;40.58;99346.24;108361;1280;22000;-73
2023/08/06 07:04:22;;;;;;;7.00;4.40;;;;;;;40.39;40.11;99342.34;108189;1277;21984;-59
2023/08/06 07:06:48;;;;;;;6.10;3.90;;;;;;;40.48;39.09;99343.35;108375;1273;21989;-59
2023/08/06 07:09:13;;;;;;;8.10;5.40;;;;;;;40.55;38.63;99343.67;108433;1270;22016;-59
2023/08/06 07:11:39;;;;;;;13.60;4.70;;;;;;;40.53;38.91;99345.63;108425;1277;21986;-72
2023/08/06 07:14:04;;;;;;;7.40;4.40;;;;;;;40.68;38.93;99341.70;108182;1281;22735;-74
2023/08/06 07:16:31;;;;;;;6.20;4.50;;;;;;;40.81;38.78;99338.30;108343;1280;23662;-73
2023/08/06 07:18:56;;;;;;;6.50;4.00;;;;;;;40.98;38.87;99335.88;108430;1274;24317;-75
2023/08/06 07:21:22;;;;;;;5.30;3.70;;;;;;;41.27;38.51;99329.94;108416;1273;21981;-60
2023/08/06 07:23:49;;;;;;;5.20;3.60;;;;;;;41.51;38.22;99326.08;108489;1281;22446;-60
2023/08/06 07:26:16;;;;;;;5.60;3.90;;;;;;;41.72;37.81;99319.37;108328;1273;23709;-59
2023/08/06 07:28:41;;;;;;;5.80;3.80;;;;;;;41.93;37.49;99319.05;109412;1277;22000;-74
2023/08/06 07:31:07;;;;;;;11.20;7.10;;;;;;;42.12;37.12;99318.70;108201;1282;23621;-60
2023/08/06 07:33:32;;;;;;;10.20;5.80;;;;;;;42.30;36.75;99317.63;108364;1271;21982;-60
2023/08/06 07:35:58;;;;;;;7.50;4.10;;;;;;;42.46;36.47;99320.23;108420;1275;21990;-59
2023/08/06 07:38:24;;;;;;;8.60;4.60;;;;;;;42.61;36.23;99317.71;108345;1276;21988;-73
2023/08/06 07:40:49;;;;;;;8.30;3.90;;;;;;;42.75;35.78;99318.17;108346;1279;23654;-59
2023/08/06 07:43:15;;;;;;;8.90;4.00;;;;;;;42.88;35.82;99314.36;108397;1277;21978;-73
2023/08/06 07:45:40;;;;;;;4.80;3.80;;;;;;;43.00;35.52;99315.21;108048;1282;21976;-73
2023/08/06 07:48:06;;;;;;;5.10;3.50;;;;;;;43.12;35.33;99314.67;108474;1279;21990;-59
2023/08/06 07:50:31;;;;;;;6.70;3.70;;;;;;;43.22;34.79;99312.70;108444;1280;22286;-60
2023/08/06 07:52:57;;;;;;;5.40;4.10;;;;;;;43.32;34.52;99314.96;108489;1280;21986;-60
2023/08/06 07:55:23;;;;;;;9.50;5.60;;;;;;;43.43;34.47;99314.90;108377;1280;21984;-73
2023/08/06 07:57:48;;;;;;;5.30;4.40;;;;;;;43.58;33.87;99313.38;108264;1280;24313;-74
2023/08/06 08:00:14;;;;;;;6.30;4.40;;;;;;;43.63;33.53;99311.86;108434;1281;22701;-60
2023/08/06 08:02:40;;;;;;;7.30;5.00;;;;;;;43.67;33.21;99308.65;108443;1276;21983;-60
2023/08/06 08:05:08;;;;;;;8.00;4.90;;;;;;;43.80;33.34;99306.65;108413;1277;21978;-74
2023/08/06 08:07:34;;;;;;;7.30;4.60;;;;;;;43.94;32.85;99306.85;108412;1282;23622;-73
2023/08/06 08:09:59;;;;;;;9.30;4.90;;;;;;;44.09;33.14;99302.25;108377;1276;21980;-77
2023/08/06 08:12:25;;;;;;;9.40;7.40;;;;;;;44.29;33.14;99301.21;108342;1276;22060;-59
2023/08/06 08:14:50;;;;;;;5.90;4.30;;;;;;;44.43;32.56;99299.30;108524;1268;22005;-60
2023/08/06 08:17:16;;;;;;;6.60;4.40;;;;;;;44.51;31.75;99296.30;108482;1268;21985;-74
2023/08/06 08:19:42;;;;;;;7.60;5.10;;;;;;;44.48;31.75;99292.63;108429;1278;23049;-75
2023/08/06 08:22:07;;;;;;;5.00;4.20;;;;;;;44.57;32.14;99293.94;108208;1281;23739;-74
2023/08/06 08:24:33;;;;;;;6.00;3.90;;;;;;;44.78;31.95;99292.17;108201;1280;23719;-73
2023/08/06 08:26:58;;;;;;;5.10;3.10;;;;;;;44.77;29.40;99295.45;108451;1281;22002;-60
2023/08/06 08:29:24;;;;;;;3.90;3.40;;;;;;;44.62;30.18;99294.95;108441;1280;22145;-60
2023/08/06 08:31:50;;;;;;;5.10;3.50;;;;;;;44.55;30.07;99288.89;108447;1281;22170;-73
2023/08/06 08:34:16;;;;;;;5.00;3.20;;;;;;;44.64;30.87;99285.70;108186;1282;21981;-73
2023/08/06 08:36:42;;;;;;;6.30;3.50;;;;;;;44.86;30.68;99283.23;108434;1274;24315;-59
2023/08/06 08:39:08;;;;;;;9.70;4.40;;;;;;;45.03;29.66;99277.33;108489;1282;21981;-74
2023/08/06 08:41:38;;;;;;;10.90;7.70;;;;;;;45.11;30.26;99269.73;108216;1282;24369;-60
2023/08/06 08:44:03;;;;;;;7.00;5.20;;;;;;;45.33;30.44;99269.61;108240;1282;21980;-60
2023/08/06 08:46:30;;;;;;;11.80;7.00;;;;;;;45.58;30.31;99262.95;108262;1279;23619;-74
2023/08/06 08:48:55;;;;;;;10.00;6.60;;;;;;;45.81;30.24;99260.95;108130;1281;22161;-73
2023/08/06 08:51:21;;;;;;;10.20;5.10;;;;;;;45.82;28.29;99251.83;108157;1283;21987;-60
2023/08/06 08:53:47;;;;;;;9.00;6.00;;;;;;;45.53;29.27;99257.90;108213;1282;22088;-73
2023/08/06 08:56:13;;;;;;;10.90;6.40;;;;;;;45.51;29.91;99256.77;108390;1277;21993;-74
2023/08/06 08:58:39;;;;;;;9.60;6.80;;;;;;;45.72;29.91;99249.95;108383;1270;21982;-74
2023/08/06 09:01:04;;;;;;;9.30;6.60;;;;;;;45.99;29.79;99247.67;108365;1281;23046;-73
2023/08/06 09:03:30;;;;;;;11.20;5.50;;;;;;;46.24;29.71;99244.33;108412;1277;21975;-74
2023/08/06 09:05:56;;;;;;;10.20;5.70;;;;;;;46.47;29.74;99248.15;108382;1282;21993;-75
2023/08/06 09:08:26;;;;;;;7.40;5.40;;;;;;;46.67;29.57;99249.55;108146;1274;23695;-60
2023/08/06 09:10:52;;;;;;;7.90;5.10;;;;;;;46.85;29.33;99247.46;108400;1277;21996;-73
2023/08/06 09:13:19;;;;;;;8.20;4.00;;;;;;;46.98;28.26;99250.17;108455;1277;21983;-73
2023/08/06 09:15:44;;;;;;;6.60;4.10;;;;;;;46.93;28.15;99244.58;108407;1272;21993;-60
2023/08/06 09:18:11;;;;;;;6.30;4.30;;;;;;;46.96;28.50;99241.23;108562;1279;21988;-73
2023/08/06 09:20:40;;;;;;;10.50;5.00;;;;;;;47.09;28.36;99236.22;108459;1281;23713;-60
2023/08/06 09:23:10;;;;;;;7.70;4.00;;;;;;;47.19;27.39;99238.55;108427;1277;21962;-74
2023/08/06 09:25:41;;;;;;;7.70;4.40;;;;;;;47.00;27.38;99237.17;108486;1271;21980;-60
2023/08/06 09:28:07;;;;;;;6.80;4.50;;;;;;;46.91;27.86;99235.07;108444;1282;23744;-59
2023/08/06 09:30:34;;;;;;;6.70;4.30;;;;;;;46.96;27.76;99235.10;108423;1281;21976;-60
2023/08/06 09:33:00;;;;;;;8.90;4.80;;;;;;;46.99;27.91;99226.10;108427;1280;21987;-59
2023/08/06 09:35:30;;;;;;;6.80;4.00;;;;;;;47.08;27.74;99222.75;108338;1273;21978;-74
2023/08/06 09:37:59;;;;;;;6.90;4.50;;;;;;;47.19;27.71;99222.12;108407;1273;23753;-59
2023/08/06 09:40:31;;;;;;;8.30;4.60;;;;;;;47.27;26.59;99221.85;108229;1277;21984;-77
2023/08/06 09:42:57;;;;;;;9.10;4.30;;;;;;;47.01;26.29;99218.80;108469;1274;23323;-60
2023/08/06 09:45:23;;;;;;;6.80;5.00;;;;;;;46.60;26.88;99217.38;108416;1277;21983;-60
2023/08/06 09:47:50;;;;;;;6.80;4.80;;;;;;;46.34;27.21;99208.38;108197;1273;21983;-72
2023/08/06 09:50:19;;;;;;;10.70;4.30;;;;;;;46.22;26.87;99207.20;108413;1276;23829;-60
2023/08/06 09:52:46;;;;;;;8.90;4.50;;;;;;;45.80;26.44;99206.70;108252;1282;21979;-75
2023/08/06 09:55:12;;;;;;;6.40;4.50;;;;;;;45.46;26.73;99201.63;108425;1276;23138;-74
2023/08/06 09:57:38;;;;;;;6.60;3.90;;;;;;;45.40;27.64;99199.13;108384;1281;21981;-72
2023/08/06 10:00:09;;;;;;;5.80;4.10;;;;;;;45.68;27.84;99194.15;108343;1274;24399;-60
2023/08/06 10:02:37;;;;;;;7.90;4.70;;;;;;;45.93;26.33;99193.80;108416;1281;22083;-73
2023/08/06 10:05:03;;;;;;;10.60;4.60;;;;;;;45.79;26.66;99191.08;108427;1282;23726;-73
2023/08/06 10:07:29;;;;;;;6.80;4.00;;;;;;;45.68;27.20;99190.02;108388;1277;22251;-60
2023/08/06 10:09:55;;;;;;;6.70;4.60;;;;;;;45.75;26.91;99185.92;108457;1277;22035;-60
2023/08/06 10:12:21;;;;;;;7.70;4.50;;;;;;;45.82;26.55;99188.41;108241;1281;21983;-60
2023/08/06 10:14:46;;;;;;;9.40;4.90;;;;;;;45.68;25.95;99190.48;108224;1277;21993;-70
2023/08/06 10:17:12;;;;;;;7.90;4.80;;;;;;;45.28;26.22;99194.96;108115;1281;21986;-71
2023/08/06 10:19:38;;;;;;;9.40;4.30;;;;;;;45.04;26.37;99197.62;108418;1279;22001;-71
2023/08/06 10:22:19;;;;;;;7.20;4.70;;;;;;;44.95;26.63;99193.51;108400;1273;22154;-59
2023/08/06 10:24:55;;;;;;;7.80;4.10;;;;;;;44.95;26.75;99194.23;108401;1278;22073;-74
2023/08/06 10:27:31;;;;;;;7.20;4.70;;;;;;;44.92;26.57;99191.39;108410;1273;22039;-72
2023/08/06 10:30:23;;;;;;;8.30;4.00;;;;;;;44.82;26.51;99188.65;108382;1281;21973;-75
2023/08/06 10:32:50;;;;;;;10.10;4.90;;;;;;;44.70;26.37;99185.95;108420;1276;21989;-60
2023/08/06 10:35:35;;;;;;;7.60;4.70;;;;;;;44.47;26.75;99180.28;108453;1272;22016;-73
2023/08/06 10:38:17;;;;;;;8.40;4.80;;;;;;;44.25;26.89;99178.20;108494;1282;21985;-60
2023/08/06 10:41:01;;;;;;;5.60;4.70;;;;;;;44.15;26.87;99173.23;108329;1280;21989;-60
2023/08/06 10:43:34;;;;;;;8.50;4.90;;;;;;;43.96;26.96;99167.43;108231;1280;21992;-60
2023/08/06 10:46:02;;;;;;;7.30;3.90;;;;;;;43.79;27.27;99162.96;108383;1271;21985;-73
2023/08/06 10:48:36;;;;;;;8.10;4.70;;;;;;;43.68;27.39;99165.30;108453;1281;22461;-60
2023/08/06 10:51:02;;;;;;;6.60;4.80;;;;;;;43.76;27.21;99163.94;108472;1281;21983;-61
2023/08/06 10:53:28;;;;;;;9.50;5.10;;;;;;;43.99;27.18;99156.19;108438;1277;22027;-60
2023/08/06 10:55:53;;;;;;;8.00;4.80;;;;;;;44.42;27.39;99156.70;108374;1278;22240;-60
2023/08/06 10:58:19;;;;;;;8.10;4.90;;;;;;;44.87;27.04;99152.91;108360;1274;22003;-73
2023/08/06 11:00:45;;;;;;;8.60;3.90;;;;;;;45.20;26.26;99147.48;108208;1282;23194;-60
2023/08/06 11:03:11;;;;;;;12.80;4.90;;;;;;;45.23;25.90;99149.59;108476;1280;21980;-60
2023/08/06 11:05:36;;;;;;;6.60;4.70;;;;;;;45.13;25.61;99152.77;108064;1282;21978;-73
2023/08/06 11:08:02;;;;;;;8.60;4.90;;;;;;;44.91;25.82;99153.59;108424;1281;21988;-71
2023/08/06 11:10:28;;;;;;;7.50;4.40;;;;;;;44.71;26.11;99152.05;108414;1273;23719;-60
2023/08/06 11:12:53;;;;;;;12.40;5.20;;;;;;;44.68;26.43;99152.61;108395;1274;21992;-61
2023/08/06 11:15:20;;;;;;;8.90;4.80;;;;;;;44.75;26.42;99150.34;108360;1280;22006;-75
2023/08/06 11:17:46;;;;;;;8.10;4.40;;;;;;;45.08;26.60;99143.65;108470;1281;22747;-61